sensor_id;sensor_type;location;lat;lon;timestamp;temperature;humidity
70830;SHT30;58451;51.550;7.208;2022-07-18T00:02:26;16.25;55.22
70830;SHT30;58451;51.550;7.208;2022-07-18T00:04:53;16.20;55.37
70830;SHT30;58451;51.550;7.208;2022-07-18T00:07:20;16.16;55.27
70830;SHT30;58451;51.550;7.208;2022-07-18T00:09:47;16.13;55.31
70830;SHT30;58451;51.550;7.208;2022-07-18T00:12:14;16.08;55.31
70830;SHT30;58451;51.550;7.208;2022-07-18T00:14:41;16.05;55.36
70830;SHT30;58451;51.550;7.208;2022-07-18T00:17:08;16.01;55.52
70830;SHT30;58451;51.550;7.208;2022-07-18T00:19:36;15.98;55.64
70830;SHT30;58451;51.550;7.208;2022-07-18T00:22:05;15.94;55.85
70830;SHT30;58451;51.550;7.208;2022-07-18T00:24:32;15.90;55.74
70830;SHT30;58451;51.550;7.208;2022-07-18T00:26:59;15.87;55.67
70830;SHT30;58451;51.550;7.208;2022-07-18T00:29:27;15.84;55.87
70830;SHT30;58451;51.550;7.208;2022-07-18T00:31:54;15.81;55.99
70830;SHT30;58451;51.550;7.208;2022-07-18T00:34:21;15.79;56.13
70830;SHT30;58451;51.550;7.208;2022-07-18T00:36:48;15.76;56.36
70830;SHT30;58451;51.550;7.208;2022-07-18T00:39:15;15.73;56.40
70830;SHT30;58451;51.550;7.208;2022-07-18T00:41:46;15.69;56.41
70830;SHT30;58451;51.550;7.208;2022-07-18T00:44:22;15.67;59.12
70830;SHT30;58451;51.550;7.208;2022-07-18T00:46:52;15.65;60.62
70830;SHT30;58451;51.550;7.208;2022-07-18T00:49:21;15.63;59.32
70830;SHT30;58451;51.550;7.208;2022-07-18T00:51:49;15.60;57.90
70830;SHT30;58451;51.550;7.208;2022-07-18T00:54:16;15.57;58.14
70830;SHT30;58451;51.550;7.208;2022-07-18T00:56:45;15.53;58.41
70830;SHT30;58451;51.550;7.208;2022-07-18T00:59:15;15.51;59.43
70830;SHT30;58451;51.550;7.208;2022-07-18T01:01:42;15.48;59.25
70830;SHT30;58451;51.550;7.208;2022-07-18T01:04:11;15.45;61.56
70830;SHT30;58451;51.550;7.208;2022-07-18T01:06:40;15.42;60.43
70830;SHT30;58451;51.550;7.208;2022-07-18T01:09:07;15.40;59.31
70830;SHT30;58451;51.550;7.208;2022-07-18T01:11:35;15.36;58.77
70830;SHT30;58451;51.550;7.208;2022-07-18T01:14:03;15.33;58.63
70830;SHT30;58451;51.550;7.208;2022-07-18T01:16:32;15.30;58.61
70830;SHT30;58451;51.550;7.208;2022-07-18T01:19:01;15.25;58.59
70830;SHT30;58451;51.550;7.208;2022-07-18T01:21:29;15.23;58.74
70830;SHT30;58451;51.550;7.208;2022-07-18T01:23:57;15.19;58.86
70830;SHT30;58451;51.550;7.208;2022-07-18T01:26:24;15.17;58.83
70830;SHT30;58451;51.550;7.208;2022-07-18T01:28:50;15.14;58.91
70830;SHT30;58451;51.550;7.208;2022-07-18T01:31:18;15.11;58.93
70830;SHT30;58451;51.550;7.208;2022-07-18T01:33:44;15.09;58.98
70830;SHT30;58451;51.550;7.208;2022-07-18T01:36:11;15.08;58.95
70830;SHT30;58451;51.550;7.208;2022-07-18T01:38:38;15.04;59.11
70830;SHT30;58451;51.550;7.208;2022-07-18T01:41:06;15.01;59.19
70830;SHT30;58451;51.550;7.208;2022-07-18T01:43:33;14.99;59.38
70830;SHT30;58451;51.550;7.208;2022-07-18T01:46:00;14.96;59.30
70830;SHT30;58451;51.550;7.208;2022-07-18T01:48:29;14.94;59.38
70830;SHT30;58451;51.550;7.208;2022-07-18T01:50:56;14.92;59.53
70830;SHT30;58451;51.550;7.208;2022-07-18T01:53:23;14.89;59.66
70830;SHT30;58451;51.550;7.208;2022-07-18T01:55:51;14.87;59.65
70830;SHT30;58451;51.550;7.208;2022-07-18T01:58:18;14.86;59.69
70830;SHT30;58451;51.550;7.208;2022-07-18T02:00:45;14.85;60.27
70830;SHT30;58451;51.550;7.208;2022-07-18T02:03:12;14.84;60.98
70830;SHT30;58451;51.550;7.208;2022-07-18T02:05:39;14.83;60.32
70830;SHT30;58451;51.550;7.208;2022-07-18T02:08:06;14.82;60.08
70830;SHT30;58451;51.550;7.208;2022-07-18T02:10:33;14.81;59.99
70830;SHT30;58451;51.550;7.208;2022-07-18T02:13:00;14.80;59.91
70830;SHT30;58451;51.550;7.208;2022-07-18T02:15:27;14.77;60.12
70830;SHT30;58451;51.550;7.208;2022-07-18T02:17:54;14.76;60.73
70830;SHT30;58451;51.550;7.208;2022-07-18T02:20:21;14.76;60.47
70830;SHT30;58451;51.550;7.208;2022-07-18T02:22:48;14.75;60.16
70830;SHT30;58451;51.550;7.208;2022-07-18T02:25:14;14.73;60.11
70830;SHT30;58451;51.550;7.208;2022-07-18T02:27:41;14.70;60.04
70830;SHT30;58451;51.550;7.208;2022-07-18T02:30:09;14.69;59.97
70830;SHT30;58451;51.550;7.208;2022-07-18T02:32:37;14.68;59.96
70830;SHT30;58451;51.550;7.208;2022-07-18T02:35:05;14.66;59.90
70830;SHT30;58451;51.550;7.208;2022-07-18T02:37:34;14.64;59.82
70830;SHT30;58451;51.550;7.208;2022-07-18T02:40:08;14.63;59.86
70830;SHT30;58451;51.550;7.208;2022-07-18T02:42:37;14.61;59.94
70830;SHT30;58451;51.550;7.208;2022-07-18T02:45:05;14.59;60.00
70830;SHT30;58451;51.550;7.208;2022-07-18T02:47:34;14.58;60.26
70830;SHT30;58451;51.550;7.208;2022-07-18T02:50:01;14.56;60.42
70830;SHT30;58451;51.550;7.208;2022-07-18T02:52:28;14.55;60.25
70830;SHT30;58451;51.550;7.208;2022-07-18T02:54:55;14.53;60.30
70830;SHT30;58451;51.550;7.208;2022-07-18T02:57:23;14.49;60.38
70830;SHT30;58451;51.550;7.208;2022-07-18T02:59:50;14.47;60.43
70830;SHT30;58451;51.550;7.208;2022-07-18T03:02:17;14.44;60.56
70830;SHT30;58451;51.550;7.208;2022-07-18T03:04:44;14.41;60.58
70830;SHT30;58451;51.550;7.208;2022-07-18T03:07:11;14.37;60.73
70830;SHT30;58451;51.550;7.208;2022-07-18T03:09:38;14.35;60.82
70830;SHT30;58451;51.550;7.208;2022-07-18T03:12:04;14.32;60.96
70830;SHT30;58451;51.550;7.208;2022-07-18T03:14:32;14.30;61.20
70830;SHT30;58451;51.550;7.208;2022-07-18T03:16:59;14.26;61.10
70830;SHT30;58451;51.550;7.208;2022-07-18T03:19:27;14.25;61.13
70830;SHT30;58451;51.550;7.208;2022-07-18T03:21:54;14.23;61.32
70830;SHT30;58451;51.550;7.208;2022-07-18T03:24:21;14.20;61.49
70830;SHT30;58451;51.550;7.208;2022-07-18T03:26:48;14.19;61.48
70830;SHT30;58451;51.550;7.208;2022-07-18T03:29:15;14.17;61.63
70830;SHT30;58451;51.550;7.208;2022-07-18T03:31:41;14.16;61.68
70830;SHT30;58451;51.550;7.208;2022-07-18T03:34:08;14.15;61.82
70830;SHT30;58451;51.550;7.208;2022-07-18T03:36:36;14.14;61.93
70830;SHT30;58451;51.550;7.208;2022-07-18T03:39:04;14.13;61.94
70830;SHT30;58451;51.550;7.208;2022-07-18T03:41:33;14.12;61.98
70830;SHT30;58451;51.550;7.208;2022-07-18T03:44:00;14.13;61.97
70830;SHT30;58451;51.550;7.208;2022-07-18T03:46:28;14.12;62.01
70830;SHT30;58451;51.550;7.208;2022-07-18T03:48:56;14.14;62.70
70830;SHT30;58451;51.550;7.208;2022-07-18T03:51:23;14.16;65.58
70830;SHT30;58451;51.550;7.208;2022-07-18T03:53:51;14.18;63.68
70830;SHT30;58451;51.550;7.208;2022-07-18T03:56:18;14.20;66.17
70830;SHT30;58451;51.550;7.208;2022-07-18T03:58:46;14.22;68.00
70830;SHT30;58451;51.550;7.208;2022-07-18T04:01:13;14.22;65.81
70830;SHT30;58451;51.550;7.208;2022-07-18T04:03:40;14.25;64.39
70830;SHT30;58451;51.550;7.208;2022-07-18T04:06:07;14.28;63.91
70830;SHT30;58451;51.550;7.208;2022-07-18T04:08:34;14.30;63.62
70830;SHT30;58451;51.550;7.208;2022-07-18T04:11:01;14.33;63.56
70830;SHT30;58451;51.550;7.208;2022-07-18T04:13:27;14.38;65.41
70830;SHT30;58451;51.550;7.208;2022-07-18T04:15:54;14.43;64.49
70830;SHT30;58451;51.550;7.208;2022-07-18T04:18:21;14.48;63.96
70830;SHT30;58451;51.550;7.208;2022-07-18T04:20:48;14.54;63.57
70830;SHT30;58451;51.550;7.208;2022-07-18T04:23:15;14.61;63.49
70830;SHT30;58451;51.550;7.208;2022-07-18T04:25:44;14.66;63.30
70830;SHT30;58451;51.550;7.208;2022-07-18T04:28:12;14.71;63.31
70830;SHT30;58451;51.550;7.208;2022-07-18T04:30:40;14.76;63.28
70830;SHT30;58451;51.550;7.208;2022-07-18T04:33:09;14.83;63.21
70830;SHT30;58451;51.550;7.208;2022-07-18T04:35:38;14.90;63.15
70830;SHT30;58451;51.550;7.208;2022-07-18T04:38:08;14.99;63.15
70830;SHT30;58451;51.550;7.208;2022-07-18T04:40:37;15.04;63.15
70830;SHT30;58451;51.550;7.208;2022-07-18T04:43:04;15.11;63.16
70830;SHT30;58451;51.550;7.208;2022-07-18T04:45:33;15.17;63.11
70830;SHT30;58451;51.550;7.208;2022-07-18T04:48:01;15.26;62.97
70830;SHT30;58451;51.550;7.208;2022-07-18T04:50:31;15.35;62.90
70830;SHT30;58451;51.550;7.208;2022-07-18T04:52:59;15.41;62.79
70830;SHT30;58451;51.550;7.208;2022-07-18T04:55:26;15.50;62.63
70830;SHT30;58451;51.550;7.208;2022-07-18T04:57:54;15.60;62.51
70830;SHT30;58451;51.550;7.208;2022-07-18T05:00:23;15.70;62.38
70830;SHT30;58451;51.550;7.208;2022-07-18T05:02:53;15.83;62.14
70830;SHT30;58451;51.550;7.208;2022-07-18T05:05:23;15.95;61.96
70830;SHT30;58451;51.550;7.208;2022-07-18T05:08:02;16.07;61.70
70830;SHT30;58451;51.550;7.208;2022-07-18T05:10:30;16.17;61.55
70830;SHT30;58451;51.550;7.208;2022-07-18T05:12:57;16.27;61.41
70830;SHT30;58451;51.550;7.208;2022-07-18T05:15:24;16.34;61.28
70830;SHT30;58451;51.550;7.208;2022-07-18T05:17:52;16.43;61.21
70830;SHT30;58451;51.550;7.208;2022-07-18T05:20:21;16.51;61.14
70830;SHT30;58451;51.550;7.208;2022-07-18T05:22:51;16.58;61.05
70830;SHT30;58451;51.550;7.208;2022-07-18T05:25:19;16.69;60.90
70830;SHT30;58451;51.550;7.208;2022-07-18T05:27:51;16.82;60.77
70830;SHT30;58451;51.550;7.208;2022-07-18T05:30:19;16.96;60.63
70830;SHT30;58451;51.550;7.208;2022-07-18T05:32:49;17.09;60.48
70830;SHT30;58451;51.550;7.208;2022-07-18T05:35:18;17.23;60.29
70830;SHT30;58451;51.550;7.208;2022-07-18T05:37:45;17.36;60.07
70830;SHT30;58451;51.550;7.208;2022-07-18T05:40:12;17.47;59.91
70830;SHT30;58451;51.550;7.208;2022-07-18T05:42:41;17.59;59.63
70830;SHT30;58451;51.550;7.208;2022-07-18T05:45:20;17.73;59.27
70830;SHT30;58451;51.550;7.208;2022-07-18T05:47:50;17.87;58.98
70830;SHT30;58451;51.550;7.208;2022-07-18T05:50:18;18.01;58.71
70830;SHT30;58451;51.550;7.208;2022-07-18T05:52:45;18.16;58.27
70830;SHT30;58451;51.550;7.208;2022-07-18T05:55:12;18.28;57.87
70830;SHT30;58451;51.550;7.208;2022-07-18T05:57:40;18.41;57.50
70830;SHT30;58451;51.550;7.208;2022-07-18T06:00:07;18.55;57.02
70830;SHT30;58451;51.550;7.208;2022-07-18T06:02:36;18.73;56.70
70830;SHT30;58451;51.550;7.208;2022-07-18T06:05:04;18.85;56.37
70830;SHT30;58451;51.550;7.208;2022-07-18T06:07:48;18.97;56.14
70830;SHT30;58451;51.550;7.208;2022-07-18T06:10:15;19.15;55.79
70830;SHT30;58451;51.550;7.208;2022-07-18T06:12:42;19.27;55.52
70830;SHT30;58451;51.550;7.208;2022-07-18T06:15:09;19.42;55.16
70830;SHT30;58451;51.550;7.208;2022-07-18T06:17:36;19.60;54.88
70830;SHT30;58451;51.550;7.208;2022-07-18T06:20:04;19.76;54.61
70830;SHT30;58451;51.550;7.208;2022-07-18T06:22:35;19.94;54.33
70830;SHT30;58451;51.550;7.208;2022-07-18T06:25:03;20.13;53.98
70830;SHT30;58451;51.550;7.208;2022-07-18T06:27:31;20.31;53.71
70830;SHT30;58451;51.550;7.208;2022-07-18T06:29:58;20.50;53.33
70830;SHT30;58451;51.550;7.208;2022-07-18T06:32:25;20.66;52.77
70830;SHT30;58451;51.550;7.208;2022-07-18T06:34:52;20.79;52.50
70830;SHT30;58451;51.550;7.208;2022-07-18T06:37:19;20.88;52.22
70830;SHT30;58451;51.550;7.208;2022-07-18T06:39:46;21.11;51.81
70830;SHT30;58451;51.550;7.208;2022-07-18T06:42:13;21.32;51.51
70830;SHT30;58451;51.550;7.208;2022-07-18T06:44:40;21.52;51.03
70830;SHT30;58451;51.550;7.208;2022-07-18T06:47:07;21.70;50.64
70830;SHT30;58451;51.550;7.208;2022-07-18T06:49:34;21.89;50.32
70830;SHT30;58451;51.550;7.208;2022-07-18T06:52:01;22.03;50.02
70830;SHT30;58451;51.550;7.208;2022-07-18T06:54:30;22.19;49.73
70830;SHT30;58451;51.550;7.208;2022-07-18T06:56:59;22.38;49.27
70830;SHT30;58451;51.550;7.208;2022-07-18T06:59:26;22.58;48.59
70830;SHT30;58451;51.550;7.208;2022-07-18T07:01:53;22.75;47.52
70830;SHT30;58451;51.550;7.208;2022-07-18T07:04:20;22.96;47.26
70830;SHT30;58451;51.550;7.208;2022-07-18T07:06:47;23.16;46.62
70830;SHT30;58451;51.550;7.208;2022-07-18T07:09:13;23.35;46.09
70830;SHT30;58451;51.550;7.208;2022-07-18T07:11:40;23.54;45.07
70830;SHT30;58451;51.550;7.208;2022-07-18T07:14:07;23.74;44.16
70830;SHT30;58451;51.550;7.208;2022-07-18T07:16:34;23.93;43.82
70830;SHT30;58451;51.550;7.208;2022-07-18T07:19:01;24.12;43.16
70830;SHT30;58451;51.550;7.208;2022-07-18T07:21:28;24.26;42.47
70830;SHT30;58451;51.550;7.208;2022-07-18T07:23:55;24.33;41.74
70830;SHT30;58451;51.550;7.208;2022-07-18T07:26:22;24.42;41.14
70830;SHT30;58451;51.550;7.208;2022-07-18T07:28:50;24.52;40.02
70830;SHT30;58451;51.550;7.208;2022-07-18T07:31:17;24.68;39.85
70830;SHT30;58451;51.550;7.208;2022-07-18T07:33:44;24.81;40.15
70830;SHT30;58451;51.550;7.208;2022-07-18T07:36:11;24.91;38.91
70830;SHT30;58451;51.550;7.208;2022-07-18T07:38:38;25.04;39.47
70830;SHT30;58451;51.550;7.208;2022-07-18T07:41:05;25.20;38.06
70830;SHT30;58451;51.550;7.208;2022-07-18T07:43:33;25.38;38.07
70830;SHT30;58451;51.550;7.208;2022-07-18T07:46:02;25.56;37.91
70830;SHT30;58451;51.550;7.208;2022-07-18T07:48:30;25.69;37.62
70830;SHT30;58451;51.550;7.208;2022-07-18T07:50:57;25.80;36.57
70830;SHT30;58451;51.550;7.208;2022-07-18T07:53:24;25.88;37.21
70830;SHT30;58451;51.550;7.208;2022-07-18T07:55:51;25.96;35.47
70830;SHT30;58451;51.550;7.208;2022-07-18T07:58:18;26.08;36.28
70830;SHT30;58451;51.550;7.208;2022-07-18T08:00:45;26.16;34.21
70830;SHT30;58451;51.550;7.208;2022-07-18T08:03:12;26.27;35.52
70830;SHT30;58451;51.550;7.208;2022-07-18T08:05:44;26.44;35.68
70830;SHT30;58451;51.550;7.208;2022-07-18T08:08:13;26.62;34.42
70830;SHT30;58451;51.550;7.208;2022-07-18T08:10:41;26.73;32.53
70830;SHT30;58451;51.550;7.208;2022-07-18T08:13:10;26.82;33.73
70830;SHT30;58451;51.550;7.208;2022-07-18T08:15:39;26.91;33.44
70830;SHT30;58451;51.550;7.208;2022-07-18T08:18:07;27.05;32.18
70830;SHT30;58451;51.550;7.208;2022-07-18T08:20:34;27.14;32.73
70830;SHT30;58451;51.550;7.208;2022-07-18T08:23:02;27.26;32.52
70830;SHT30;58451;51.550;7.208;2022-07-18T08:25:33;27.40;32.53
70830;SHT30;58451;51.550;7.208;2022-07-18T08:28:03;27.51;31.71
70830;SHT30;58451;51.550;7.208;2022-07-18T08:30:32;27.63;31.08
70830;SHT30;58451;51.550;7.208;2022-07-18T08:33:01;27.76;31.19
70830;SHT30;58451;51.550;7.208;2022-07-18T08:35:29;27.90;30.35
70830;SHT30;58451;51.550;7.208;2022-07-18T08:37:58;28.02;29.88
70830;SHT30;58451;51.550;7.208;2022-07-18T08:40:27;28.10;29.92
70830;SHT30;58451;51.550;7.208;2022-07-18T08:42:57;28.16;30.03
70830;SHT30;58451;51.550;7.208;2022-07-18T08:45:44;28.33;30.69
70830;SHT30;58451;51.550;7.208;2022-07-18T08:48:13;28.50;30.67
70830;SHT30;58451;51.550;7.208;2022-07-18T08:50:46;28.62;29.58
70830;SHT30;58451;51.550;7.208;2022-07-18T08:53:14;28.75;29.99
70830;SHT30;58451;51.550;7.208;2022-07-18T08:55:44;28.82;29.53
70830;SHT30;58451;51.550;7.208;2022-07-18T08:58:12;28.89;29.69
70830;SHT30;58451;51.550;7.208;2022-07-18T09:01:03;28.97;30.06
70830;SHT30;58451;51.550;7.208;2022-07-18T09:03:31;29.11;29.62
70830;SHT30;58451;51.550;7.208;2022-07-18T09:08:34;29.35;28.60
70830;SHT30;58451;51.550;7.208;2022-07-18T09:11:04;29.45;28.82
70830;SHT30;58451;51.550;7.208;2022-07-18T09:13:57;29.59;28.66
70830;SHT30;58451;51.550;7.208;2022-07-18T09:16:24;29.70;27.27
70830;SHT30;58451;51.550;7.208;2022-07-18T09:18:51;29.70;27.47
70830;SHT30;58451;51.550;7.208;2022-07-18T09:21:19;29.77;27.50
70830;SHT30;58451;51.550;7.208;2022-07-18T09:23:50;29.86;27.22
70830;SHT30;58451;51.550;7.208;2022-07-18T09:29:08;29.89;26.79
70830;SHT30;58451;51.550;7.208;2022-07-18T09:31:52;29.95;25.90
70830;SHT30;58451;51.550;7.208;2022-07-18T09:37:11;30.09;26.78
70830;SHT30;58451;51.550;7.208;2022-07-18T09:39:38;30.21;26.12
70830;SHT30;58451;51.550;7.208;2022-07-18T09:42:15;30.32;26.42
70830;SHT30;58451;51.550;7.208;2022-07-18T09:44:57;30.36;25.80
70830;SHT30;58451;51.550;7.208;2022-07-18T09:47:26;30.34;26.22
70830;SHT30;58451;51.550;7.208;2022-07-18T09:49:53;30.47;26.27
70830;SHT30;58451;51.550;7.208;2022-07-18T09:52:21;30.58;24.40
70830;SHT30;58451;51.550;7.208;2022-07-18T09:54:49;30.58;23.53
70830;SHT30;58451;51.550;7.208;2022-07-18T09:57:23;30.60;24.03
70830;SHT30;58451;51.550;7.208;2022-07-18T09:59:52;30.75;24.55
70830;SHT30;58451;51.550;7.208;2022-07-18T10:02:19;30.90;24.52
70830;SHT30;58451;51.550;7.208;2022-07-18T10:04:47;31.02;24.77
70830;SHT30;58451;51.550;7.208;2022-07-18T10:07:15;31.16;24.08
70830;SHT30;58451;51.550;7.208;2022-07-18T10:09:43;31.29;24.34
70830;SHT30;58451;51.550;7.208;2022-07-18T10:12:15;31.40;24.24
70830;SHT30;58451;51.550;7.208;2022-07-18T10:14:42;31.48;24.29
70830;SHT30;58451;51.550;7.208;2022-07-18T10:17:10;31.54;22.94
70830;SHT30;58451;51.550;7.208;2022-07-18T10:19:38;31.40;22.28
70830;SHT30;58451;51.550;7.208;2022-07-18T10:22:06;31.37;22.48
70830;SHT30;58451;51.550;7.208;2022-07-18T10:24:36;31.43;21.71
70830;SHT30;58451;51.550;7.208;2022-07-18T10:27:19;31.52;22.08
70830;SHT30;58451;51.550;7.208;2022-07-18T10:32:37;31.80;21.52
70830;SHT30;58451;51.550;7.208;2022-07-18T10:35:06;31.75;21.29
70830;SHT30;58451;51.550;7.208;2022-07-18T10:37:34;31.76;20.37
70830;SHT30;58451;51.550;7.208;2022-07-18T10:46:00;31.75;21.82
70830;SHT30;58451;51.550;7.208;2022-07-18T10:51:10;31.92;21.33
70830;SHT30;58451;51.550;7.208;2022-07-18T10:56:23;32.08;21.43
70830;SHT30;58451;51.550;7.208;2022-07-18T10:59:17;32.19;21.10
70830;SHT30;58451;51.550;7.208;2022-07-18T11:01:47;32.23;21.01
70830;SHT30;58451;51.550;7.208;2022-07-18T11:07:11;32.38;20.19
70830;SHT30;58451;51.550;7.208;2022-07-18T11:23:01;32.61;21.12
70830;SHT30;58451;51.550;7.208;2022-07-18T11:25:42;32.62;21.30
70830;SHT30;58451;51.550;7.208;2022-07-18T11:28:26;32.73;21.55
70830;SHT30;58451;51.550;7.208;2022-07-18T11:31:01;32.90;21.23
70830;SHT30;58451;51.550;7.208;2022-07-18T11:33:34;32.92;21.07
70830;SHT30;58451;51.550;7.208;2022-07-18T11:38:50;32.72;21.52
70830;SHT30;58451;51.550;7.208;2022-07-18T11:41:23;32.85;21.58
70830;SHT30;58451;51.550;7.208;2022-07-18T11:43:51;32.90;21.52
70830;SHT30;58451;51.550;7.208;2022-07-18T11:46:23;32.94;20.99
70830;SHT30;58451;51.550;7.208;2022-07-18T11:49:02;32.96;21.22
70830;SHT30;58451;51.550;7.208;2022-07-18T11:51:36;33.12;21.20
70830;SHT30;58451;51.550;7.208;2022-07-18T11:54:09;33.25;21.08
70830;SHT30;58451;51.550;7.208;2022-07-18T11:56:44;33.21;20.78
70830;SHT30;58451;51.550;7.208;2022-07-18T11:59:21;33.08;21.02
70830;SHT30;58451;51.550;7.208;2022-07-18T12:01:49;33.14;20.99
70830;SHT30;58451;51.550;7.208;2022-07-18T12:04:22;33.15;21.05
70830;SHT30;58451;51.550;7.208;2022-07-18T12:09:52;33.39;21.01
70830;SHT30;58451;51.550;7.208;2022-07-18T12:12:20;33.55;21.36
70830;SHT30;58451;51.550;7.208;2022-07-18T12:14:56;33.83;21.17
70830;SHT30;58451;51.550;7.208;2022-07-18T12:17:27;33.93;20.64
70830;SHT30;58451;51.550;7.208;2022-07-18T12:20:15;33.86;20.61
70830;SHT30;58451;51.550;7.208;2022-07-18T12:25:37;34.05;20.69
70830;SHT30;58451;51.550;7.208;2022-07-18T12:28:12;34.15;20.29
70830;SHT30;58451;51.550;7.208;2022-07-18T12:30:44;34.15;19.83
70830;SHT30;58451;51.550;7.208;2022-07-18T12:33:13;34.04;19.92
70830;SHT30;58451;51.550;7.208;2022-07-18T12:35:40;34.17;20.08
70830;SHT30;58451;51.550;7.208;2022-07-18T12:40:57;34.31;19.85
70830;SHT30;58451;51.550;7.208;2022-07-18T12:43:29;34.48;19.82
70830;SHT30;58451;51.550;7.208;2022-07-18T12:45:59;34.53;19.25
70830;SHT30;58451;51.550;7.208;2022-07-18T12:48:30;34.35;19.26
70830;SHT30;58451;51.550;7.208;2022-07-18T12:51:05;34.22;19.15
70830;SHT30;58451;51.550;7.208;2022-07-18T12:53:40;34.20;19.44
70830;SHT30;58451;51.550;7.208;2022-07-18T12:56:09;34.32;19.64
70830;SHT30;58451;51.550;7.208;2022-07-18T12:58:37;34.39;19.65
70830;SHT30;58451;51.550;7.208;2022-07-18T13:01:04;34.43;19.86
70830;SHT30;58451;51.550;7.208;2022-07-18T13:03:34;34.65;19.92
70830;SHT30;58451;51.550;7.208;2022-07-18T13:06:02;34.76;19.55
70830;SHT30;58451;51.550;7.208;2022-07-18T13:08:29;34.68;19.77
70830;SHT30;58451;51.550;7.208;2022-07-18T13:10:57;34.76;20.16
70830;SHT30;58451;51.550;7.208;2022-07-18T13:13:25;34.99;20.19
70830;SHT30;58451;51.550;7.208;2022-07-18T13:15:53;35.21;20.13
70830;SHT30;58451;51.550;7.208;2022-07-18T13:18:20;35.37;20.22
70830;SHT30;58451;51.550;7.208;2022-07-18T13:20:47;35.58;20.11
70830;SHT30;58451;51.550;7.208;2022-07-18T13:23:14;35.67;19.78
70830;SHT30;58451;51.550;7.208;2022-07-18T13:25:42;35.63;19.40
70830;SHT30;58451;51.550;7.208;2022-07-18T13:28:10;35.47;19.32
70830;SHT30;58451;51.550;7.208;2022-07-18T13:30:37;35.36;19.33
70830;SHT30;58451;51.550;7.208;2022-07-18T13:33:05;35.27;19.34
70830;SHT30;58451;51.550;7.208;2022-07-18T13:35:32;35.27;19.30
70830;SHT30;58451;51.550;7.208;2022-07-18T13:38:00;35.23;19.40
70830;SHT30;58451;51.550;7.208;2022-07-18T13:40:28;35.34;19.45
70830;SHT30;58451;51.550;7.208;2022-07-18T13:42:55;35.44;19.47
70830;SHT30;58451;51.550;7.208;2022-07-18T13:45:22;36.05;19.35
70830;SHT30;58451;51.550;7.208;2022-07-18T13:47:49;36.81;19.00
70830;SHT30;58451;51.550;7.208;2022-07-18T13:50:16;37.52;18.11
70830;SHT30;58451;51.550;7.208;2022-07-18T13:52:45;38.04;17.46
70830;SHT30;58451;51.550;7.208;2022-07-18T13:55:11;38.49;17.44
70830;SHT30;58451;51.550;7.208;2022-07-18T13:57:38;39.33;17.71
70830;SHT30;58451;51.550;7.208;2022-07-18T14:00:06;40.01;16.16
70830;SHT30;58451;51.550;7.208;2022-07-18T14:02:36;40.39;15.89
70830;SHT30;58451;51.550;7.208;2022-07-18T14:05:04;40.66;15.64
70830;SHT30;58451;51.550;7.208;2022-07-18T14:07:40;41.14;15.45
70830;SHT30;58451;51.550;7.208;2022-07-18T14:10:09;41.64;15.59
70830;SHT30;58451;51.550;7.208;2022-07-18T14:12:38;42.49;15.58
70830;SHT30;58451;51.550;7.208;2022-07-18T14:15:06;43.40;15.14
70830;SHT30;58451;51.550;7.208;2022-07-18T14:17:34;44.17;14.31
70830;SHT30;58451;51.550;7.208;2022-07-18T14:20:02;44.28;13.71
70830;SHT30;58451;51.550;7.208;2022-07-18T14:22:30;44.54;13.37
70830;SHT30;58451;51.550;7.208;2022-07-18T14:24:57;44.17;13.24
70830;SHT30;58451;51.550;7.208;2022-07-18T14:27:24;44.09;13.44
70830;SHT30;58451;51.550;7.208;2022-07-18T14:29:51;44.27;13.53
70830;SHT30;58451;51.550;7.208;2022-07-18T14:32:18;44.86;13.49
70830;SHT30;58451;51.550;7.208;2022-07-18T14:34:46;45.91;13.80
70830;SHT30;58451;51.550;7.208;2022-07-18T14:37:12;46.82;13.38
70830;SHT30;58451;51.550;7.208;2022-07-18T14:39:39;47.77;12.66
70830;SHT30;58451;51.550;7.208;2022-07-18T14:42:06;47.64;11.70
70830;SHT30;58451;51.550;7.208;2022-07-18T14:44:33;46.92;11.93
70830;SHT30;58451;51.550;7.208;2022-07-18T14:47:00;46.75;12.11
70830;SHT30;58451;51.550;7.208;2022-07-18T14:49:27;47.15;12.33
70830;SHT30;58451;51.550;7.208;2022-07-18T14:51:54;47.88;12.04
70830;SHT30;58451;51.550;7.208;2022-07-18T14:54:25;48.30;11.56
70830;SHT30;58451;51.550;7.208;2022-07-18T14:56:52;47.74;11.69
70830;SHT30;58451;51.550;7.208;2022-07-18T14:59:20;48.04;11.79
70830;SHT30;58451;51.550;7.208;2022-07-18T15:01:47;48.52;11.79
70830;SHT30;58451;51.550;7.208;2022-07-18T15:04:15;48.94;11.84
70830;SHT30;58451;51.550;7.208;2022-07-18T15:06:44;49.40;11.44
70830;SHT30;58451;51.550;7.208;2022-07-18T15:09:13;49.71;11.80
70830;SHT30;58451;51.550;7.208;2022-07-18T15:11:40;50.46;11.64
70830;SHT30;58451;51.550;7.208;2022-07-18T15:14:07;51.17;11.00
70830;SHT30;58451;51.550;7.208;2022-07-18T15:16:35;51.42;11.11
70830;SHT30;58451;51.550;7.208;2022-07-18T15:19:03;52.02;10.52
70830;SHT30;58451;51.550;7.208;2022-07-18T15:21:30;51.92;10.30
70830;SHT30;58451;51.550;7.208;2022-07-18T15:23:58;51.34;10.58
70830;SHT30;58451;51.550;7.208;2022-07-18T15:26:25;51.94;10.87
70830;SHT30;58451;51.550;7.208;2022-07-18T15:28:52;53.37;10.58
70830;SHT30;58451;51.550;7.208;2022-07-18T15:31:19;54.53;10.38
70830;SHT30;58451;51.550;7.208;2022-07-18T15:33:47;55.22;10.07
70830;SHT30;58451;51.550;7.208;2022-07-18T15:36:14;55.32;9.79
70830;SHT30;58451;51.550;7.208;2022-07-18T15:38:41;55.51;10.04
70830;SHT30;58451;51.550;7.208;2022-07-18T15:41:09;56.16;9.76
70830;SHT30;58451;51.550;7.208;2022-07-18T15:43:39;56.44;9.19
70830;SHT30;58451;51.550;7.208;2022-07-18T15:46:07;55.44;9.17
70830;SHT30;58451;51.550;7.208;2022-07-18T15:48:35;54.64;9.44
70830;SHT30;58451;51.550;7.208;2022-07-18T15:51:01;54.84;9.58
70830;SHT30;58451;51.550;7.208;2022-07-18T15:53:30;54.24;9.35
70830;SHT30;58451;51.550;7.208;2022-07-18T15:55:57;53.22;9.83
70830;SHT30;58451;51.550;7.208;2022-07-18T15:58:24;53.49;9.92
70830;SHT30;58451;51.550;7.208;2022-07-18T16:00:51;54.21;9.98
70830;SHT30;58451;51.550;7.208;2022-07-18T16:03:18;54.84;9.40
70830;SHT30;58451;51.550;7.208;2022-07-18T16:05:45;54.95;9.54
70830;SHT30;58451;51.550;7.208;2022-07-18T16:08:12;54.78;9.50
70830;SHT30;58451;51.550;7.208;2022-07-18T16:10:39;53.62;9.64
70830;SHT30;58451;51.550;7.208;2022-07-18T16:13:06;53.04;10.08
70830;SHT30;58451;51.550;7.208;2022-07-18T16:15:33;53.43;9.99
70830;SHT30;58451;51.550;7.208;2022-07-18T16:18:00;53.80;9.93
70830;SHT30;58451;51.550;7.208;2022-07-18T16:20:30;54.79;9.66
70830;SHT30;58451;51.550;7.208;2022-07-18T16:22:58;55.38;9.43
70830;SHT30;58451;51.550;7.208;2022-07-18T16:25:25;54.96;9.53
70830;SHT30;58451;51.550;7.208;2022-07-18T16:27:52;55.28;9.41
70830;SHT30;58451;51.550;7.208;2022-07-18T16:30:19;55.89;9.39
70830;SHT30;58451;51.550;7.208;2022-07-18T16:32:46;56.22;9.43